Time;durP1;ratioP1;P1;durP2;ratioP2;P2;SDS_P1;SDS_P2;PMS_P1;PMS_P2;Temp;Humidity;BMP_temperature;BMP_pressure;BME280_temperature;BME280_humidity;BME280_pressure;Samples;Min_cycle;Max_cycle;Signal;HPM_P1;HPM_P2
2023/03/18 00:00:52;;;;;;;8.65;6.20;;;;;;;;;;5070789;28;20041;-61
2023/03/18 00:03:18;;;;;;;12.15;5.80;;;;;;;;;;5070557;28;20076;-61
2023/03/18 00:05:44;;;;;;;12.98;6.28;;;;;;;;;;5071177;28;20617;-61
2023/03/18 00:08:11;;;;;;;10.60;5.80;;;;;;;;;;5069761;28;20520;-61
2023/03/18 00:10:37;;;;;;;12.35;5.80;;;;;;;;;;5070542;28;20032;-61
2023/03/18 00:13:03;;;;;;;10.55;6.85;;;;;;;;;;5071174;28;20479;-61
2023/03/18 00:15:29;;;;;;;10.75;6.35;;;;;;;;;;5071021;28;20036;-61
2023/03/18 00:17:58;;;;;;;9.88;6.22;;;;;;;;;;5070824;28;20040;-61
2023/03/18 00:20:37;;;;;;;14.18;6.93;;;;;;;;;;5070571;28;20119;-61
2023/03/18 00:23:03;;;;;;;12.32;7.00;;;;;;;;;;5070389;28;20052;-61
2023/03/18 00:25:29;;;;;;;12.80;7.00;;;;;;;;;;5087991;28;20912;-61
2023/03/18 00:27:55;;;;;;;11.50;7.18;;;;;;;;;;5091154;28;20048;-61
2023/03/18 00:30:22;;;;;;;13.68;7.43;;;;;;;;;;5079584;28;20032;-61
2023/03/18 00:32:48;;;;;;;14.05;7.10;;;;;;;;;;5070423;28;20041;-61
2023/03/18 00:35:15;;;;;;;15.63;7.53;;;;;;;;;;5070699;28;20364;-61
2023/03/18 00:37:41;;;;;;;10.93;7.93;;;;;;;;;;5070837;28;20045;-61
2023/03/18 00:40:16;;;;;;;14.00;8.02;;;;;;;;;;5070356;28;20660;-61
2023/03/18 00:42:46;;;;;;;15.32;8.95;;;;;;;;;;5070694;28;20383;-61
2023/03/18 00:45:14;;;;;;;15.35;8.65;;;;;;;;;;5070943;28;20060;-61
2023/03/18 00:47:41;;;;;;;14.30;8.48;;;;;;;;;;5090284;28;20127;-61
2023/03/18 00:50:07;;;;;;;13.05;8.45;;;;;;;;;;5082835;28;20386;-61
2023/03/18 00:52:34;;;;;;;16.33;9.23;;;;;;;;;;5070710;28;20036;-61
2023/03/18 00:55:00;;;;;;;11.93;9.38;;;;;;;;;;5070148;28;20044;-61
2023/03/18 00:57:27;;;;;;;15.70;9.73;;;;;;;;;;5070550;28;20037;-61
2023/03/18 00:59:53;;;;;;;15.20;9.80;;;;;;;;;;5070659;28;20044;-61
2023/03/18 01:02:19;;;;;;;13.15;9.95;;;;;;;;;;5070551;28;20147;-61
2023/03/18 01:04:45;;;;;;;15.40;10.07;;;;;;;;;;5070428;28;20076;-61
2023/03/18 01:07:12;;;;;;;16.10;10.65;;;;;;;;;;5070499;28;20052;-61
2023/03/18 01:09:39;;;;;;;15.77;10.93;;;;;;;;;;5070108;28;20127;-61
2023/03/18 01:12:09;;;;;;;19.48;10.57;;;;;;;;;;5070462;28;20114;-61
2023/03/18 01:14:36;;;;;;;17.88;11.18;;;;;;;;;;5084234;28;20067;-61
2023/03/18 01:17:03;;;;;;;19.08;12.05;;;;;;;;;;5094504;28;20044;-61
2023/03/18 01:19:29;;;;;;;19.35;11.95;;;;;;;;;;5076217;28;20437;-61
2023/03/18 01:21:55;;;;;;;17.33;11.80;;;;;;;;;;5073842;28;20064;-61
2023/03/18 01:24:21;;;;;;;18.05;11.70;;;;;;;;;;5082546;28;20044;-61
2023/03/18 01:26:47;;;;;;;16.50;11.82;;;;;;;;;;5078672;28;20032;-61
2023/03/18 01:29:13;;;;;;;18.10;12.18;;;;;;;;;;5074138;28;20200;-61
2023/03/18 01:31:39;;;;;;;21.50;12.82;;;;;;;;;;5073849;28;20558;-61
2023/03/18 01:34:05;;;;;;;19.30;12.20;;;;;;;;;;5073420;28;20048;-61
2023/03/18 01:36:32;;;;;;;21.35;13.57;;;;;;;;;;5074140;28;20040;-61
2023/03/18 01:38:58;;;;;;;21.35;13.32;;;;;;;;;;5073698;28;20045;-61
2023/03/18 01:41:25;;;;;;;21.23;13.63;;;;;;;;;;5073077;28;20123;-61
2023/03/18 01:43:54;;;;;;;21.88;13.55;;;;;;;;;;5073838;28;20041;-61
2023/03/18 01:46:37;;;;;;;19.60;13.32;;;;;;;;;;5080702;28;20048;-61
2023/03/18 01:49:09;;;;;;;26.10;14.80;;;;;;;;;;5093208;28;20044;-61
2023/03/18 01:51:35;;;;;;;24.27;15.97;;;;;;;;;;5076263;28;20040;-61
2023/03/18 01:54:03;;;;;;;27.98;14.35;;;;;;;;;;5077807;28;20040;-61
2023/03/18 01:56:29;;;;;;;24.17;13.63;;;;;;;;;;5093368;28;20089;-61
2023/03/18 01:58:57;;;;;;;20.33;15.13;;;;;;;;;;5081966;28;20579;-61
2023/03/18 02:01:26;;;;;;;23.23;14.88;;;;;;;;;;5073336;28;20109;-61
2023/03/18 02:03:53;;;;;;;23.42;15.02;;;;;;;;;;5072590;28;20045;-61
2023/03/18 02:06:19;;;;;;;24.58;14.38;;;;;;;;;;5079648;28;20494;-61
2023/03/18 02:08:46;;;;;;;22.27;14.77;;;;;;;;;;5093673;28;20055;-61
2023/03/18 02:11:13;;;;;;;21.02;14.55;;;;;;;;;;5079056;28;20048;-61
2023/03/18 02:13:41;;;;;;;21.40;14.23;;;;;;;;;;5073305;28;20658;-61
2023/03/18 02:16:19;;;;;;;21.60;14.98;;;;;;;;;;5073511;28;20090;-61
2023/03/18 02:18:57;;;;;;;30.50;15.95;;;;;;;;;;5074708;28;20071;-61
2023/03/18 02:21:37;;;;;;;21.40;14.82;;;;;;;;;;5092908;28;20064;-61
2023/03/18 02:24:12;;;;;;;22.30;16.20;;;;;;;;;;5077781;28;20490;-61
2023/03/18 02:26:49;;;;;;;21.67;15.02;;;;;;;;;;5084837;28;20048;-61
2023/03/18 02:29:17;;;;;;;23.55;15.75;;;;;;;;;;5072971;28;20430;-61
2023/03/18 02:31:43;;;;;;;26.58;16.65;;;;;;;;;;5072145;28;20116;-61
2023/03/18 02:34:10;;;;;;;29.55;16.13;;;;;;;;;;5072766;28;20544;-61
2023/03/18 02:36:36;;;;;;;24.70;15.80;;;;;;;;;;5073027;28;20090;-61
2023/03/18 02:39:03;;;;;;;27.10;16.45;;;;;;;;;;5072057;28;20479;-61
2023/03/18 02:41:32;;;;;;;34.00;17.48;;;;;;;;;;5072513;28;20037;-61
2023/03/18 02:43:58;;;;;;;23.48;16.42;;;;;;;;;;5086902;28;20040;-61
2023/03/18 02:46:34;;;;;;;22.73;16.40;;;;;;;;;;5092150;28;20097;-61
2023/03/18 02:49:01;;;;;;;27.40;16.80;;;;;;;;;;5092730;28;20477;-61
2023/03/18 02:51:27;;;;;;;26.30;17.17;;;;;;;;;;5106870;28;20042;-61
2023/03/18 02:54:00;;;;;;;29.50;16.92;;;;;;;;;;5109945;28;20043;-61
2023/03/18 02:56:26;;;;;;;27.17;17.27;;;;;;;;;;5072351;28;20086;-61
2023/03/18 02:58:52;;;;;;;26.55;17.55;;;;;;;;;;5072227;28;20514;-61
2023/03/18 03:01:18;;;;;;;32.17;17.25;;;;;;;;;;5071697;28;20045;-61
2023/03/18 03:03:44;;;;;;;25.30;16.63;;;;;;;;;;5072380;28;20475;-61
2023/03/18 03:06:10;;;;;;;26.33;16.58;;;;;;;;;;5072014;28;20115;-61
2023/03/18 03:08:37;;;;;;;26.17;17.35;;;;;;;;;;5071709;28;20044;-61
2023/03/18 03:11:03;;;;;;;26.90;18.08;;;;;;;;;;5071882;28;20047;-61
2023/03/18 03:13:29;;;;;;;31.02;18.13;;;;;;;;;;5072012;28;20033;-61
2023/03/18 03:15:56;;;;;;;28.90;18.45;;;;;;;;;;5071447;28;20609;-61
2023/03/18 03:18:22;;;;;;;31.85;19.58;;;;;;;;;;5072040;28;20070;-61
2023/03/18 03:20:50;;;;;;;24.17;17.27;;;;;;;;;;5070726;28;20125;-61
2023/03/18 03:23:16;;;;;;;28.92;18.88;;;;;;;;;;5070482;28;20094;-61
2023/03/18 03:25:44;;;;;;;28.90;18.30;;;;;;;;;;5085465;28;20048;-61
2023/03/18 03:28:12;;;;;;;31.58;19.17;;;;;;;;;;5071771;28;20052;-61
2023/03/18 03:30:39;;;;;;;31.08;19.58;;;;;;;;;;5070780;28;20048;-61
2023/03/18 03:33:06;;;;;;;31.85;19.08;;;;;;;;;;5071593;28;20071;-61
2023/03/18 03:35:32;;;;;;;29.38;19.10;;;;;;;;;;5070705;28;20044;-61
2023/03/18 03:37:58;;;;;;;30.52;19.20;;;;;;;;;;5070920;28;20047;-61
2023/03/18 03:40:26;;;;;;;32.15;20.05;;;;;;;;;;5071498;28;20136;-61
2023/03/18 03:42:52;;;;;;;30.13;19.67;;;;;;;;;;5071222;28;20032;-61
2023/03/18 03:45:18;;;;;;;29.45;19.80;;;;;;;;;;5070955;28;20059;-61
2023/03/18 03:47:45;;;;;;;37.47;20.33;;;;;;;;;;5078757;28;20616;-61
2023/03/18 03:50:12;;;;;;;28.80;19.08;;;;;;;;;;5089544;28;20371;-61
2023/03/18 03:52:38;;;;;;;31.80;19.00;;;;;;;;;;5070362;28;20035;-61
2023/03/18 03:55:06;;;;;;;31.70;20.50;;;;;;;;;;5071387;28;20040;-61
2023/03/18 03:57:32;;;;;;;31.25;19.10;;;;;;;;;;5071178;28;20047;-61
2023/03/18 03:59:58;;;;;;;32.17;20.13;;;;;;;;;;5071006;28;20062;-61
2023/03/18 04:02:26;;;;;;;34.28;19.80;;;;;;;;;;5074352;28;20490;-61
2023/03/18 04:04:52;;;;;;;29.85;20.23;;;;;;;;;;5073668;28;20059;-61
2023/03/18 04:07:18;;;;;;;30.05;20.35;;;;;;;;;;5080534;28;20095;-61
2023/03/18 04:09:45;;;;;;;31.90;20.38;;;;;;;;;;5070615;28;20067;-61
2023/03/18 04:12:11;;;;;;;36.03;20.35;;;;;;;;;;5070926;28;20045;-61
2023/03/18 04:14:38;;;;;;;33.85;20.23;;;;;;;;;;5071011;28;20081;-61
2023/03/18 04:17:04;;;;;;;30.17;19.70;;;;;;;;;;5069032;28;20136;-61
2023/03/18 04:19:30;;;;;;;31.40;19.48;;;;;;;;;;5069288;28;20049;-61
2023/03/18 04:21:56;;;;;;;33.40;21.42;;;;;;;;;;5070674;28;20060;-61
2023/03/18 04:24:22;;;;;;;32.42;20.35;;;;;;;;;;5078584;28;20079;-61
2023/03/18 04:26:49;;;;;;;31.52;20.33;;;;;;;;;;5075770;28;20555;-61
2023/03/18 04:29:15;;;;;;;32.97;20.20;;;;;;;;;;5070947;28;20040;-61
2023/03/18 04:31:41;;;;;;;28.20;20.58;;;;;;;;;;5070207;28;20048;-61
2023/03/18 04:34:08;;;;;;;36.22;22.00;;;;;;;;;;5070580;28;20036;-61
2023/03/18 04:36:35;;;;;;;31.65;20.95;;;;;;;;;;5070871;28;20051;-61
2023/03/18 04:39:01;;;;;;;31.77;22.55;;;;;;;;;;5070017;28;20472;-61
2023/03/18 04:41:27;;;;;;;29.33;21.35;;;;;;;;;;5070847;28;20466;-61
2023/03/18 04:43:53;;;;;;;32.15;21.15;;;;;;;;;;5070391;28;20052;-61
2023/03/18 04:46:19;;;;;;;31.67;21.92;;;;;;;;;;5070495;28;20066;-61
2023/03/18 04:48:46;;;;;;;32.65;21.08;;;;;;;;;;5090498;28;20048;-61
2023/03/18 04:51:12;;;;;;;30.58;21.42;;;;;;;;;;5086453;28;20525;-61
2023/03/18 04:53:39;;;;;;;29.45;21.88;;;;;;;;;;5074197;28;20041;-61
2023/03/18 04:56:06;;;;;;;33.80;22.05;;;;;;;;;;5074860;28;20114;-61
2023/03/18 04:58:32;;;;;;;26.48;20.92;;;;;;;;;;5074365;28;20064;-61
2023/03/18 05:00:58;;;;;;;29.58;22.02;;;;;;;;;;5074040;28;20768;-61
2023/03/18 05:03:24;;;;;;;32.17;21.90;;;;;;;;;;5074242;28;20051;-61
2023/03/18 05:05:50;;;;;;;34.03;22.60;;;;;;;;;;5074567;28;20048;-61
2023/03/18 05:08:19;;;;;;;34.13;21.52;;;;;;;;;;5073864;28;20044;-61
2023/03/18 05:10:46;;;;;;;32.33;21.38;;;;;;;;;;5074326;28;20050;-61
2023/03/18 05:13:12;;;;;;;34.05;22.02;;;;;;;;;;5074081;28;20048;-61
2023/03/18 05:15:38;;;;;;;32.33;21.20;;;;;;;;;;5073709;28;20528;-61
2023/03/18 05:18:04;;;;;;;28.83;20.25;;;;;;;;;;5074382;28;20040;-61
2023/03/18 05:20:30;;;;;;;32.15;21.40;;;;;;;;;;5074167;28;20032;-61
2023/03/18 05:22:57;;;;;;;33.13;22.45;;;;;;;;;;5073117;28;20059;-61
2023/03/18 05:25:23;;;;;;;33.35;21.15;;;;;;;;;;5087703;28;20079;-61
2023/03/18 05:27:49;;;;;;;29.67;21.88;;;;;;;;;;5073846;28;20090;-61
2023/03/18 05:30:15;;;;;;;27.63;20.23;;;;;;;;;;5073666;28;20043;-61
2023/03/18 05:32:42;;;;;;;32.38;21.92;;;;;;;;;;5074144;28;20123;-60
2023/03/18 05:35:09;;;;;;;30.83;21.52;;;;;;;;;;5073470;28;20029;-61
2023/03/18 05:37:35;;;;;;;31.85;22.85;;;;;;;;;;5073362;28;20040;-61
2023/03/18 05:40:03;;;;;;;32.85;20.98;;;;;;;;;;5073511;28;20040;-61
2023/03/18 05:42:29;;;;;;;31.92;21.67;;;;;;;;;;5073866;28;20119;-61
2023/03/18 05:44:56;;;;;;;30.08;20.55;;;;;;;;;;5073031;28;20059;-61
2023/03/18 05:47:22;;;;;;;35.00;22.83;;;;;;;;;;5081978;28;20059;-61
2023/03/18 05:49:48;;;;;;;27.40;19.77;;;;;;;;;;5093988;28;20119;-61
2023/03/18 05:52:16;;;;;;;31.58;20.83;;;;;;;;;;5077541;28;20124;-61
2023/03/18 05:54:42;;;;;;;28.10;19.67;;;;;;;;;;5073413;28;20083;-61
2023/03/18 05:57:08;;;;;;;31.95;22.65;;;;;;;;;;5073830;28;20530;-61
2023/03/18 05:59:35;;;;;;;27.58;20.17;;;;;;;;;;5070581;28;20051;-61
2023/03/18 06:02:01;;;;;;;29.48;21.23;;;;;;;;;;5073587;28;20082;-61
2023/03/18 06:04:27;;;;;;;29.45;21.17;;;;;;;;;;5073247;28;20445;-61
2023/03/18 06:06:54;;;;;;;27.52;20.05;;;;;;;;;;5072629;28;20063;-61
2023/03/18 06:09:21;;;;;;;30.35;20.48;;;;;;;;;;5073019;28;20049;-61
2023/03/18 06:11:47;;;;;;;30.58;21.77;;;;;;;;;;5073306;28;20080;-61
2023/03/18 06:14:13;;;;;;;29.02;20.88;;;;;;;;;;5072579;28;20371;-61
2023/03/18 06:16:40;;;;;;;29.25;20.45;;;;;;;;;;5073297;28;20067;-61
2023/03/18 06:19:07;;;;;;;30.20;20.60;;;;;;;;;;5073211;28;20634;-61
2023/03/18 06:21:33;;;;;;;30.33;20.67;;;;;;;;;;5072428;28;20090;-61
2023/03/18 06:24:00;;;;;;;29.17;19.60;;;;;;;;;;5078214;28;20044;-61
2023/03/18 06:26:26;;;;;;;31.23;21.30;;;;;;;;;;5080643;28;20120;-61
2023/03/18 06:28:52;;;;;;;32.47;21.50;;;;;;;;;;5072134;28;20420;-61
2023/03/18 06:31:18;;;;;;;27.75;20.73;;;;;;;;;;5073085;28;20040;-61
2023/03/18 06:33:45;;;;;;;29.40;20.73;;;;;;;;;;5072976;28;20402;-61
2023/03/18 06:36:11;;;;;;;29.35;19.98;;;;;;;;;;5072932;28;20076;-61
2023/03/18 06:38:37;;;;;;;28.98;19.33;;;;;;;;;;5072565;28;20060;-61
2023/03/18 06:41:03;;;;;;;27.60;19.10;;;;;;;;;;5072825;28;20615;-61
2023/03/18 06:43:30;;;;;;;29.95;18.98;;;;;;;;;;5072066;28;20756;-61
2023/03/18 06:45:56;;;;;;;26.95;18.40;;;;;;;;;;5072528;28;20041;-61
2023/03/18 06:48:23;;;;;;;24.17;17.27;;;;;;;;;;5075483;28;20045;-61
2023/03/18 06:50:49;;;;;;;25.98;16.85;;;;;;;;;;5071872;28;20040;-61
2023/03/18 06:53:16;;;;;;;25.70;18.05;;;;;;;;;;5072713;28;20051;-61
2023/03/18 06:55:42;;;;;;;22.60;16.73;;;;;;;;;;5071994;28;20050;-61
2023/03/18 06:58:09;;;;;;;22.77;16.60;;;;;;;;;;5071855;28;20082;-61
2023/03/18 07:00:35;;;;;;;28.30;17.77;;;;;;;;;;5072254;28;20052;-61
2023/03/18 07:03:01;;;;;;;25.95;16.73;;;;;;;;;;5072328;28;20040;-61
2023/03/18 07:05:28;;;;;;;24.13;16.73;;;;;;;;;;5071717;28;20123;-61
2023/03/18 07:07:54;;;;;;;27.02;17.50;;;;;;;;;;5072284;28;20098;-61
2023/03/18 07:10:22;;;;;;;26.42;17.48;;;;;;;;;;5072240;28;20072;-61
2023/03/18 07:12:49;;;;;;;24.35;16.95;;;;;;;;;;5071488;28;20094;-61
2023/03/18 07:15:15;;;;;;;23.45;16.98;;;;;;;;;;5071750;28;20434;-61
2023/03/18 07:17:41;;;;;;;26.65;17.38;;;;;;;;;;5072069;28;20036;-61
2023/03/18 07:20:08;;;;;;;23.65;17.17;;;;;;;;;;5071599;28;20090;-61
2023/03/18 07:22:36;;;;;;;25.58;15.98;;;;;;;;;;5071416;28;20102;-61
2023/03/18 07:25:02;;;;;;;31.25;17.95;;;;;;;;;;5085295;28;20083;-61
2023/03/18 07:27:28;;;;;;;27.30;16.73;;;;;;;;;;5071013;28;20115;-61
2023/03/18 07:29:55;;;;;;;26.15;16.15;;;;;;;;;;5071780;28;20574;-61
2023/03/18 07:32:22;;;;;;;25.08;15.73;;;;;;;;;;5071843;28;20072;-61
2023/03/18 07:34:48;;;;;;;24.70;16.63;;;;;;;;;;5071175;28;20105;-61
2023/03/18 07:37:14;;;;;;;24.52;16.92;;;;;;;;;;5071536;28;20425;-61
2023/03/18 07:39:42;;;;;;;26.30;16.63;;;;;;;;;;5077949;28;20051;-61
2023/03/18 07:42:08;;;;;;;30.08;17.63;;;;;;;;;;5091309;28;20466;-61
2023/03/18 07:44:35;;;;;;;27.70;17.55;;;;;;;;;;5077464;28;20071;-61
2023/03/18 07:47:02;;;;;;;24.92;18.35;;;;;;;;;;5072336;28;20080;-61
2023/03/18 07:49:28;;;;;;;39.42;19.65;;;;;;;;;;5091016;28;20489;-61
2023/03/18 07:51:55;;;;;;;29.67;19.60;;;;;;;;;;5083172;28;20036;-61
2023/03/18 07:54:22;;;;;;;27.58;19.00;;;;;;;;;;5071525;28;20079;-61
2023/03/18 07:56:48;;;;;;;29.88;18.50;;;;;;;;;;5070738;28;20052;-61
2023/03/18 07:59:15;;;;;;;32.72;19.40;;;;;;;;;;5071155;28;20076;-61
2023/03/18 08:01:41;;;;;;;30.42;20.05;;;;;;;;;;5071347;28;20044;-61
2023/03/18 08:04:08;;;;;;;27.42;19.67;;;;;;;;;;5080931;28;20043;-61
2023/03/18 08:06:34;;;;;;;28.23;19.92;;;;;;;;;;5090777;28;20040;-60
2023/03/18 08:09:00;;;;;;;30.85;21.00;;;;;;;;;;5074287;28;20166;-60
2023/03/18 08:11:26;;;;;;;31.85;21.00;;;;;;;;;;5071405;28;20074;-61
2023/03/18 08:13:52;;;;;;;34.40;22.98;;;;;;;;;;5070688;28;20457;-61
2023/03/18 08:16:18;;;;;;;34.20;22.90;;;;;;;;;;5070884;28;20379;-61
2023/03/18 08:18:45;;;;;;;33.65;22.65;;;;;;;;;;5071007;28;20040;-61
2023/03/18 08:21:11;;;;;;;36.88;23.35;;;;;;;;;;5069914;28;20040;-61
2023/03/18 08:23:37;;;;;;;31.13;22.75;;;;;;;;;;5072613;28;20517;-60
2023/03/18 08:26:04;;;;;;;36.05;23.92;;;;;;;;;;5082349;28;20086;-61
2023/03/18 08:28:30;;;;;;;36.88;24.58;;;;;;;;;;5070020;28;20851;-61
2023/03/18 08:30:56;;;;;;;37.17;24.55;;;;;;;;;;5063659;28;20069;-61
2023/03/18 08:33:26;;;;;;;35.50;23.38;;;;;;;;;;5090395;28;20036;-60
2023/03/18 08:35:52;;;;;;;38.55;24.48;;;;;;;;;;5090218;28;20076;-60
2023/03/18 08:38:18;;;;;;;38.85;23.55;;;;;;;;;;5090365;28;20047;-60
2023/03/18 08:40:46;;;;;;;36.90;24.88;;;;;;;;;;5090615;28;20051;-60
2023/03/18 08:43:12;;;;;;;34.72;24.00;;;;;;;;;;5089944;28;20054;-59
2023/03/18 08:45:38;;;;;;;37.13;25.77;;;;;;;;;;5090867;28;20405;-61
2023/03/18 08:48:05;;;;;;;39.05;26.95;;;;;;;;;;5090410;28;20046;-61
2023/03/18 08:50:32;;;;;;;38.28;25.08;;;;;;;;;;5089801;28;20375;-56
2023/03/18 08:52:59;;;;;;;36.55;25.85;;;;;;;;;;5090581;28;20630;-56
2023/03/18 08:55:29;;;;;;;39.22;25.63;;;;;;;;;;5088162;28;20127;-57
2023/03/18 08:57:56;;;;;;;36.40;24.30;;;;;;;;;;5069674;28;20044;-57
2023/03/18 09:00:23;;;;;;;35.85;23.77;;;;;;;;;;5070355;28;20386;-56
2023/03/18 09:02:49;;;;;;;35.88;22.95;;;;;;;;;;5070712;28;20087;-56
2023/03/18 09:05:15;;;;;;;34.10;22.50;;;;;;;;;;5069868;28;20043;-57
2023/03/18 09:07:41;;;;;;;32.97;21.98;;;;;;;;;;5070229;28;20116;-56
2023/03/18 09:10:08;;;;;;;31.90;21.85;;;;;;;;;;5070688;28;20048;-57
2023/03/18 09:12:34;;;;;;;35.33;22.02;;;;;;;;;;5069807;28;20052;-55
2023/03/18 09:15:01;;;;;;;34.45;21.52;;;;;;;;;;5070240;28;20040;-56
2023/03/18 09:17:28;;;;;;;30.13;20.45;;;;;;;;;;5070346;28;20153;-54
2023/03/18 09:19:55;;;;;;;29.23;20.52;;;;;;;;;;5069567;28;20106;-56
2023/03/18 09:22:21;;;;;;;32.30;20.40;;;;;;;;;;5070264;28;20053;-56
2023/03/18 09:24:47;;;;;;;31.63;20.75;;;;;;;;;;5082179;28;20066;-57
2023/03/18 09:27:13;;;;;;;33.38;22.05;;;;;;;;;;5071186;28;20120;-57
2023/03/18 09:29:40;;;;;;;30.33;21.40;;;;;;;;;;5069921;28;20033;-56
2023/03/18 09:32:10;;;;;;;34.08;22.52;;;;;;;;;;5070247;28;20416;-56
2023/03/18 09:34:36;;;;;;;38.15;22.92;;;;;;;;;;5072504;28;20110;-56
2023/03/18 09:37:02;;;;;;;34.42;23.08;;;;;;;;;;5073853;28;20382;-56
2023/03/18 09:39:28;;;;;;;36.08;22.40;;;;;;;;;;5073206;28;20071;-56
2023/03/18 09:42:12;;;;;;;36.25;22.40;;;;;;;;;;5073299;28;20041;-56
2023/03/18 09:44:39;;;;;;;37.60;22.38;;;;;;;;;;5073820;28;20128;-56
2023/03/18 09:47:35;;;;;;;35.55;22.85;;;;;;;;;;5075592;28;20052;-56
2023/03/18 09:50:07;;;;;;;37.83;24.17;;;;;;;;;;5059344;28;20197;-56
2023/03/18 09:52:33;;;;;;;;;;;;;;;;;;5074056;28;20482;-56
2023/03/18 09:55:14;;;;;;;33.90;23.75;;;;;;;;;;5073848;28;19970;-56
2023/03/18 09:57:43;;;;;;;34.15;24.00;;;;;;;;;;5073509;28;20059;-56
2023/03/18 10:00:19;;;;;;;37.08;24.45;;;;;;;;;;5072834;28;20047;-55
2023/03/18 10:02:52;;;;;;;40.05;24.85;;;;;;;;;;5072987;28;20181;-56
2023/03/18 10:05:32;;;;;;;40.53;24.95;;;;;;;;;;5073451;28;20051;-56
2023/03/18 10:08:01;;;;;;;46.00;26.45;;;;;;;;;;5073080;28;20036;-56
2023/03/18 10:10:36;;;;;;;41.65;26.27;;;;;;;;;;5072807;28;20032;-56
2023/03/18 10:13:10;;;;;;;39.08;25.55;;;;;;;;;;5073244;28;20119;-57
2023/03/18 10:15:40;;;;;;;38.95;26.38;;;;;;;;;;5074905;28;20487;-56
2023/03/18 10:18:23;;;;;;;38.25;25.88;;;;;;;;;;5092598;28;20047;-55
2023/03/18 10:21:08;;;;;;;37.88;25.73;;;;;;;;;;5081638;28;20717;-56
2023/03/18 10:23:34;;;;;;;42.72;25.23;;;;;;;;;;5073910;28;20194;-55
2023/03/18 10:26:30;;;;;;;36.78;24.92;;;;;;;;;;5081111;28;20123;-56
2023/03/18 10:29:07;;;;;;;35.25;23.45;;;;;;;;;;5062734;28;20061;-57
2023/03/18 10:31:33;;;;;;;35.78;23.45;;;;;;;;;;5073041;28;20071;-57
2023/03/18 10:33:59;;;;;;;34.20;21.95;;;;;;;;;;5072456;28;20638;-55
2023/03/18 10:36:48;;;;;;;31.45;23.58;;;;;;;;;;5072485;28;20045;-57
2023/03/18 10:39:19;;;;;;;30.88;21.80;;;;;;;;;;5064307;28;20095;-57
2023/03/18 10:41:50;;;;;;;32.72;22.52;;;;;;;;;;5072033;28;20083;-57
2023/03/18 10:44:21;;;;;;;31.08;20.60;;;;;;;;;;5072204;28;20522;-57
2023/03/18 10:46:48;;;;;;;30.05;21.42;;;;;;;;;;5072609;28;20482;-57
2023/03/18 10:49:20;;;;;;;25.98;20.38;;;;;;;;;;5091423;28;20051;-57
2023/03/18 10:51:51;;;;;;;26.85;20.30;;;;;;;;;;5090977;28;20618;-57
2023/03/18 10:54:33;;;;;;;27.42;21.10;;;;;;;;;;5072613;28;20085;-57
2023/03/18 10:56:59;;;;;;;31.05;22.15;;;;;;;;;;5072704;28;20501;-55
2023/03/18 10:59:25;;;;;;;32.25;21.55;;;;;;;;;;5072244;28;20036;-56
2023/03/18 11:01:54;;;;;;;27.98;20.27;;;;;;;;;;5071577;28;20645;-57
2023/03/18 11:04:22;;;;;;;26.63;19.58;;;;;;;;;;5072263;28;20479;-57
2023/03/18 11:06:57;;;;;;;19.75;15.15;;;;;;;;;;5072435;28;20177;-57
2023/03/18 11:09:35;;;;;;;19.55;14.43;;;;;;;;;;5070916;28;20547;-56
2023/03/18 11:12:15;;;;;;;19.17;14.23;;;;;;;;;;5072274;28;20058;-57
2023/03/18 11:14:45;;;;;;;17.08;13.57;;;;;;;;;;5072306;28;20044;-57
2023/03/18 11:17:25;;;;;;;14.13;12.63;;;;;;;;;;5084146;28;20047;-56
2023/03/18 11:20:00;;;;;;;19.90;13.27;;;;;;;;;;5090473;28;20580;-57
2023/03/18 11:22:27;;;;;;;15.52;12.63;;;;;;;;;;5071754;28;20068;-57
2023/03/18 11:25:06;;;;;;;14.88;11.82;;;;;;;;;;5073571;28;20045;-56
2023/03/18 11:27:34;;;;;;;13.80;10.32;;;;;;;;;;5071808;28;20087;-58
2023/03/18 11:30:04;;;;;;;12.93;10.82;;;;;;;;;;5071388;28;20040;-57
2023/03/18 11:32:35;;;;;;;14.98;11.23;;;;;;;;;;5071072;28;20596;-57
2023/03/18 11:35:03;;;;;;;13.57;10.13;;;;;;;;;;5071844;28;20105;-58
2023/03/18 11:37:49;;;;;;;14.02;10.57;;;;;;;;;;5071633;28;20089;-57
2023/03/18 11:40:17;;;;;;;10.80;8.93;;;;;;;;;;5070177;28;20045;-57
2023/03/18 11:42:44;;;;;;;12.98;9.75;;;;;;;;;;5071863;28;20052;-57
2023/03/18 11:45:22;;;;;;;14.93;9.70;;;;;;;;;;5071397;28;20044;-58
2023/03/18 11:47:48;;;;;;;11.95;9.10;;;;;;;;;;5078353;28;20070;-58
2023/03/18 11:50:24;;;;;;;14.05;9.23;;;;;;;;;;5071194;28;20052;-58
2023/03/18 11:52:53;;;;;;;26.33;8.65;;;;;;;;;;5071505;28;20367;-58
2023/03/18 11:55:38;;;;;;;10.73;7.13;;;;;;;;;;5070571;28;20036;-58
2023/03/18 11:58:07;;;;;;;9.73;7.75;;;;;;;;;;5071141;28;20079;-58
2023/03/18 12:00:51;;;;;;;9.07;6.82;;;;;;;;;;5077424;28;20110;-58
2023/03/18 12:03:27;;;;;;;8.15;6.25;;;;;;;;;;5090667;28;20074;-58
2023/03/18 12:06:04;;;;;;;8.48;6.63;;;;;;;;;;5074229;28;20033;-58
2023/03/18 12:08:36;;;;;;;7.88;5.65;;;;;;;;;;5070304;28;20051;-58
2023/03/18 12:11:06;;;;;;;7.63;5.75;;;;;;;;;;5070918;28;20037;-57
2023/03/18 12:13:44;;;;;;;7.75;5.85;;;;;;;;;;5085400;28;20043;-58
2023/03/18 12:16:17;;;;;;;7.35;5.35;;;;;;;;;;5089967;28;20464;-57
2023/03/18 12:18:46;;;;;;;8.70;6.90;;;;;;;;;;5070651;28;20056;-58
2023/03/18 12:21:15;;;;;;;8.55;6.50;;;;;;;;;;5079960;28;20119;-58
2023/03/18 12:23:44;;;;;;;8.25;6.43;;;;;;;;;;5087600;28;20054;-58
2023/03/18 12:26:29;;;;;;;8.93;6.90;;;;;;;;;;5080860;28;20047;-58
2023/03/18 12:29:11;;;;;;;10.65;7.82;;;;;;;;;;5082565;28;20051;-58
2023/03/18 12:31:38;;;;;;;;;;;;;;;;;;5070697;28;20044;-57
2023/03/18 12:34:08;;;;;;;6.93;5.53;;;;;;;;;;5070881;28;19940;-58
2023/03/18 12:36:53;;;;;;;8.57;5.95;;;;;;;;;;5070582;28;20033;-58
2023/03/18 12:39:19;;;;;;;7.28;5.40;;;;;;;;;;5069912;28;20040;-58
2023/03/18 12:41:57;;;;;;;7.82;5.95;;;;;;;;;;5070471;28;20086;-58
2023/03/18 12:44:23;;;;;;;9.20;6.13;;;;;;;;;;5070752;28;20502;-57
2023/03/18 12:46:55;;;;;;;7.80;6.10;;;;;;;;;;5069987;28;20080;-58
2023/03/18 12:49:27;;;;;;;7.35;6.35;;;;;;;;;;5070562;28;20055;-58
2023/03/18 12:52:16;;;;;;;7.88;6.03;;;;;;;;;;5070235;28;20041;-58
2023/03/18 12:54:55;;;;;;;9.55;6.10;;;;;;;;;;5070119;28;20042;-58
2023/03/18 12:57:40;;;;;;;14.00;7.78;;;;;;;;;;5070434;28;20033;-58
2023/03/18 13:00:27;;;;;;;10.20;6.47;;;;;;;;;;5070644;28;20048;-57
2023/03/18 13:02:59;;;;;;;10.02;6.82;;;;;;;;;;5070035;28;20497;-58
2023/03/18 13:05:26;;;;;;;;;;;;;;;;;;5071104;28;20043;-57
2023/03/18 13:08:15;;;;;;;11.40;7.22;;;;;;;;;;5071671;28;19939;-58
2023/03/18 13:10:42;;;;;;;9.77;7.43;;;;;;;;;;5064808;28;20068;-58
2023/03/18 13:13:09;;;;;;;9.48;6.93;;;;;;;;;;5074251;28;20041;-58
2023/03/18 13:15:44;;;;;;;10.55;7.22;;;;;;;;;;5078768;28;20063;-57
2023/03/18 13:18:16;;;;;;;10.48;7.65;;;;;;;;;;5077016;28;20478;-58
2023/03/18 13:20:42;;;;;;;10.80;7.03;;;;;;;;;;5074194;28;20366;-58
2023/03/18 13:23:24;;;;;;;8.95;6.63;;;;;;;;;;5073162;28;20060;-58
2023/03/18 13:25:50;;;;;;;8.98;6.28;;;;;;;;;;5081295;28;20063;-57
2023/03/18 13:28:36;;;;;;;7.45;6.30;;;;;;;;;;5093051;28;20040;-58
2023/03/18 13:31:14;;;;;;;8.07;6.60;;;;;;;;;;5073625;28;20438;-59
2023/03/18 13:34:04;;;;;;;9.80;6.72;;;;;;;;;;5073838;28;20109;-58
2023/03/18 13:36:42;;;;;;;8.50;6.20;;;;;;;;;;5045419;28;20438;-58
2023/03/18 13:39:25;;;;;;;8.05;6.20;;;;;;;;;;5073126;28;20044;-58
2023/03/18 13:42:14;;;;;;;10.38;6.85;;;;;;;;;;5073688;28;20413;-58
2023/03/18 13:44:44;;;;;;;8.77;6.43;;;;;;;;;;5073178;28;20048;-58
2023/03/18 13:47:15;;;;;;;10.48;6.55;;;;;;;;;;5076446;28;20070;-58
2023/03/18 13:49:41;;;;;;;8.53;7.27;;;;;;;;;;5081343;28;20422;-58
2023/03/18 13:52:21;;;;;;;10.07;7.47;;;;;;;;;;5073049;28;20036;-58
2023/03/18 13:54:47;;;;;;;12.23;7.57;;;;;;;;;;5073840;28;20398;-58
2023/03/18 13:57:29;;;;;;;10.50;7.80;;;;;;;;;;5073701;28;20043;-58
2023/03/18 14:00:17;;;;;;;10.95;7.35;;;;;;;;;;5073052;28;20041;-59
2023/03/18 14:02:44;;;;;;;11.20;7.30;;;;;;;;;;5072423;28;20078;-58
2023/03/18 14:05:29;;;;;;;8.48;6.78;;;;;;;;;;5073470;28;20048;-58
2023/03/18 14:07:55;;;;;;;8.07;6.45;;;;;;;;;;5072849;28;20046;-58
2023/03/18 14:10:22;;;;;;;9.23;6.05;;;;;;;;;;5073273;28;20041;-58
2023/03/18 14:12:48;;;;;;;10.70;6.63;;;;;;;;;;5072880;28;20040;-58
2023/03/18 14:15:14;;;;;;;7.25;6.22;;;;;;;;;;5072832;28;20390;-58
2023/03/18 14:17:47;;;;;;;8.18;6.18;;;;;;;;;;5073710;28;20064;-58
2023/03/18 14:20:16;;;;;;;7.07;5.45;;;;;;;;;;5072451;28;20076;-58
2023/03/18 14:22:44;;;;;;;7.88;5.57;;;;;;;;;;5072001;28;20402;-58
2023/03/18 14:25:13;;;;;;;7.72;5.45;;;;;;;;;;5082199;28;20101;-58
2023/03/18 14:27:48;;;;;;;7.05;5.05;;;;;;;;;;5093160;28;20044;-58
2023/03/18 14:30:30;;;;;;;7.00;5.15;;;;;;;;;;5078417;28;20091;-58
2023/03/18 14:32:56;;;;;;;;;;;;;;;;;;5078180;28;20048;-58
2023/03/18 14:35:46;;;;;;;8.65;4.78;;;;;;;;;;5093382;28;19982;-58